Time;durP1;ratioP1;P1;durP2;ratioP2;P2;SDS_P1;SDS_P2;PMS_P1;PMS_P2;Temp;Humidity;BMP_temperature;BMP_pressure;BME280_temperature;BME280_humidity;BME280_pressure;Samples;Min_cycle;Max_cycle;Signal;HPM_P1;HPM_P2
2021/06/20 00:00:26;;;;;;;1999.90;999.90;;;11.30;99.90;;;;;;6127820;23;20587;-46
2021/06/20 00:02:54;;;;;;;1999.90;999.90;;;11.30;99.90;;;;;;6127879;23;20590;-45
2021/06/20 00:05:31;;;;;;;1999.90;999.90;;;11.20;99.90;;;;;;6127931;23;20147;-45
2021/06/20 00:08:16;;;;;;;1999.90;999.90;;;11.20;99.90;;;;;;6127973;23;20171;-45
2021/06/20 00:10:44;;;;;;;1999.90;999.90;;;11.20;99.90;;;;;;6127955;23;20132;-45
2021/06/20 00:13:11;;;;;;;1999.90;999.90;;;11.10;99.90;;;;;;6127673;23;20158;-45
2021/06/20 00:15:39;;;;;;;1999.90;999.90;;;11.10;99.90;;;;;;6127914;23;20508;-45
2021/06/20 00:18:06;;;;;;;1999.90;999.90;;;11.10;99.90;;;;;;6127764;23;20175;-45
2021/06/20 00:20:40;;;;;;;1999.90;999.90;;;11.10;99.90;;;;;;6128025;23;20171;-45
2021/06/20 00:23:07;;;;;;;1999.90;999.90;;;11.00;99.90;;;;;;6127792;23;20136;-45
2021/06/20 00:25:34;;;;;;;1999.90;999.90;;;11.10;99.90;;;;;;6127746;23;20544;-47
2021/06/20 00:28:01;;;;;;;1999.90;999.90;;;11.10;99.90;;;;;;6127659;23;20262;-45
2021/06/20 00:30:32;;;;;;;1999.90;999.90;;;11.10;99.90;;;;;;6127705;23;20147;-45
2021/06/20 00:32:59;;;;;;;1999.90;999.90;;;11.10;99.90;;;;;;6127582;23;20148;-45
2021/06/20 00:35:26;;;;;;;1999.90;999.90;;;11.10;99.90;;;;;;6127647;23;20148;-45
2021/06/20 00:37:55;;;;;;;1999.90;999.90;;;11.10;99.90;;;;;;6127703;23;20143;-46
2021/06/20 00:40:22;;;;;;;1999.90;999.90;;;11.20;99.90;;;;;;6127513;23;20155;-45
2021/06/20 00:42:49;;;;;;;1999.90;999.90;;;11.20;99.90;;;;;;6127610;23;20143;-45
2021/06/20 00:45:18;;;;;;;1999.90;999.90;;;11.40;99.90;;;;;;6127629;23;20151;-45
2021/06/20 00:47:46;;;;;;;1999.90;999.90;;;11.40;99.90;;;;;;6127283;23;20200;-45
2021/06/20 00:50:14;;;;;;;1999.90;999.90;;;11.40;99.90;;;;;;6127534;23;20275;-45
2021/06/20 00:52:42;;;;;;;1999.90;999.90;;;11.50;99.90;;;;;;6127252;23;20182;-45
2021/06/20 00:55:09;;;;;;;1999.90;999.90;;;11.50;99.90;;;;;;6127660;23;20151;-45
2021/06/20 00:57:37;;;;;;;1999.90;999.90;;;11.60;99.90;;;;;;6127628;23;20147;-45
2021/06/20 01:00:07;;;;;;;1999.90;999.90;;;11.60;99.90;;;;;;6127583;23;20183;-45
2021/06/20 01:02:34;;;;;;;1999.90;999.90;;;11.60;99.90;;;;;;6127452;23;20151;-45
2021/06/20 01:05:02;;;;;;;1999.90;999.90;;;11.50;99.90;;;;;;6127191;23;20191;-45
2021/06/20 01:07:29;;;;;;;1999.90;999.90;;;11.50;99.90;;;;;;6126899;23;20191;-45
2021/06/20 01:09:56;;;;;;;1999.90;999.90;;;11.60;99.90;;;;;;6127211;23;20286;-46
2021/06/20 01:12:23;;;;;;;1999.90;999.90;;;11.70;99.90;;;;;;6127205;23;20233;-46
2021/06/20 01:14:51;;;;;;;1999.90;999.90;;;11.70;99.90;;;;;;6127353;23;20143;-48
2021/06/20 01:17:19;;;;;;;1999.90;999.90;;;11.70;99.90;;;;;;6127257;23;20591;-45
2021/06/20 01:19:47;;;;;;;1999.90;999.90;;;11.80;99.90;;;;;;6127316;23;20147;-45
2021/06/20 01:22:18;;;;;;;1999.90;999.90;;;11.90;99.90;;;;;;6127242;23;20609;-45
2021/06/20 01:24:48;;;;;;;1999.90;999.90;;;11.90;99.90;;;;;;6127180;23;20538;-45
2021/06/20 01:27:15;;;;;;;1999.90;999.90;;;12.00;99.90;;;;;;6127006;23;20290;-45
2021/06/20 01:29:48;;;;;;;1999.90;999.90;;;12.10;99.90;;;;;;6127049;23;20163;-45
2021/06/20 01:32:18;;;;;;;1999.90;999.90;;;12.10;99.90;;;;;;6127042;23;20139;-45
2021/06/20 01:34:46;;;;;;;1999.90;999.90;;;12.10;99.90;;;;;;6127160;23;20147;-45
2021/06/20 01:37:17;;;;;;;1999.90;999.90;;;12.00;99.90;;;;;;6127012;23;20151;-45
2021/06/20 01:39:45;;;;;;;1999.90;999.90;;;12.00;99.90;;;;;;6127015;23;20151;-45
2021/06/20 01:42:14;;;;;;;1999.90;999.90;;;12.00;99.90;;;;;;6127121;23;20147;-45
2021/06/20 01:45:08;;;;;;;1999.90;999.90;;;11.90;99.90;;;;;;6126839;23;20160;-45
2021/06/20 01:47:37;;;;;;;1999.90;999.90;;;11.90;99.90;;;;;;6123228;23;20190;-45
2021/06/20 01:50:08;;;;;;;1999.90;999.90;;;11.90;99.90;;;;;;6127017;23;20144;-45
2021/06/20 01:52:36;;;;;;;1999.90;999.90;;;11.80;99.90;;;;;;6126614;23;20277;-45
2021/06/20 01:55:04;;;;;;;1999.90;999.90;;;11.80;99.90;;;;;;6126972;23;20501;-45
2021/06/20 01:57:34;;;;;;;1999.90;999.90;;;11.70;99.90;;;;;;6126954;23;20158;-45
2021/06/20 02:00:03;;;;;;;1999.90;999.90;;;11.60;99.90;;;;;;6126816;23;20202;-45
2021/06/20 02:02:30;;;;;;;1999.90;999.90;;;11.60;99.90;;;;;;6126897;23;20147;-46
2021/06/20 02:04:58;;;;;;;1999.90;999.90;;;11.60;99.90;;;;;;6126805;23;20317;-45
2021/06/20 02:07:26;;;;;;;1999.90;999.90;;;11.50;99.90;;;;;;6126585;23;20637;-45
2021/06/20 02:09:55;;;;;;;1999.90;999.90;;;11.60;99.90;;;;;;6126782;23;20222;-45
2021/06/20 02:12:24;;;;;;;1999.90;999.90;;;11.60;99.90;;;;;;6126797;23;20234;-45
2021/06/20 02:14:52;;;;;;;1999.90;999.90;;;11.60;99.90;;;;;;6126712;23;20144;-45
2021/06/20 02:17:26;;;;;;;1999.90;999.90;;;11.60;99.90;;;;;;6126227;23;20151;-45
2021/06/20 02:19:57;;;;;;;1999.90;999.90;;;11.50;99.90;;;;;;6126739;23;20214;-45
2021/06/20 02:22:28;;;;;;;1999.90;999.90;;;11.50;99.90;;;;;;6126721;23;20226;-45
2021/06/20 02:24:55;;;;;;;1999.90;999.90;;;11.40;99.90;;;;;;6126715;23;20147;-45
2021/06/20 02:27:22;;;;;;;1999.90;999.90;;;11.40;99.90;;;;;;6126468;23;20689;-45
2021/06/20 02:29:54;;;;;;;1999.90;999.90;;;11.40;99.90;;;;;;6126563;23;20155;-48
2021/06/20 02:32:22;;;;;;;1999.90;999.90;;;11.50;99.90;;;;;;6126677;23;20215;-45
2021/06/20 02:34:50;;;;;;;1999.90;999.90;;;11.60;99.90;;;;;;6126567;23;20229;-46
2021/06/20 02:37:17;;;;;;;1999.90;999.90;;;12.00;99.90;;;;;;6126551;23;20147;-46
2021/06/20 02:39:44;;;;;;;1999.90;999.90;;;12.20;99.90;;;;;;6126564;23;20234;-46
2021/06/20 02:42:12;;;;;;;1999.90;999.90;;;12.20;99.90;;;;;;6126637;23;20226;-45
2021/06/20 02:44:40;;;;;;;1999.90;999.90;;;12.10;99.90;;;;;;6126428;23;20148;-46
2021/06/20 02:47:08;;;;;;;1999.90;999.90;;;12.00;99.90;;;;;;6126415;23;20179;-46
2021/06/20 02:49:37;;;;;;;1999.90;999.90;;;12.10;99.90;;;;;;6126435;23;20143;-47
2021/06/20 02:52:06;;;;;;;1999.90;999.90;;;12.60;99.90;;;;;;6126415;23;20190;-46
2021/06/20 02:54:33;;;;;;;1999.90;999.90;;;13.00;99.90;;;;;;6126302;23;20300;-45
2021/06/20 02:57:00;;;;;;;1999.90;999.90;;;12.70;99.90;;;;;;6126308;23;20230;-45
2021/06/20 02:59:27;;;;;;;1999.90;999.90;;;12.60;99.90;;;;;;6126377;23;20147;-46
2021/06/20 03:01:54;;;;;;;1999.90;999.90;;;12.30;99.90;;;;;;6126318;23;20475;-46
2021/06/20 03:04:21;;;;;;;1999.90;999.90;;;12.10;99.90;;;;;;6126325;23;20526;-46
2021/06/20 03:06:48;;;;;;;1999.90;999.90;;;12.00;99.90;;;;;;6126034;23;20210;-47
2021/06/20 03:09:15;;;;;;;1999.90;999.90;;;12.00;99.90;;;;;;6126472;23;20158;-46
2021/06/20 03:11:42;;;;;;;1999.90;999.90;;;11.90;99.90;;;;;;6126254;23;20143;-46
2021/06/20 03:14:15;;;;;;;1999.90;999.90;;;11.80;99.90;;;;;;6126045;23;20527;-46
2021/06/20 03:16:43;;;;;;;1999.90;999.90;;;11.70;99.90;;;;;;6126254;23;20481;-47
2021/06/20 03:19:10;;;;;;;1999.90;999.90;;;11.70;99.90;;;;;;6126194;23;20148;-45
2021/06/20 03:21:37;;;;;;;1999.90;999.90;;;11.60;99.90;;;;;;6126168;23;20152;-46
2021/06/20 03:24:05;;;;;;;1999.90;999.90;;;11.70;99.90;;;;;;6126132;23;20151;-46
2021/06/20 03:26:32;;;;;;;1999.90;999.90;;;11.70;99.90;;;;;;6125719;23;20199;-46
2021/06/20 03:28:59;;;;;;;1999.90;999.90;;;11.70;99.90;;;;;;6125794;23;20155;-46
2021/06/20 03:31:27;;;;;;;1999.90;999.90;;;11.60;99.90;;;;;;6125743;23;20181;-46
2021/06/20 03:33:57;;;;;;;1999.90;999.90;;;11.60;99.90;;;;;;6126036;23;20591;-45
2021/06/20 03:36:25;;;;;;;1999.90;999.90;;;11.50;99.90;;;;;;6125777;23;20144;-45
2021/06/20 03:38:51;;;;;;;1999.90;999.90;;;11.50;99.90;;;;;;6125779;23;20584;-46
2021/06/20 03:41:18;;;;;;;1999.90;999.90;;;11.60;99.90;;;;;;6126057;23;20151;-45
2021/06/20 03:43:45;;;;;;;1999.90;999.90;;;11.60;99.90;;;;;;6126043;23;20154;-48
2021/06/20 03:46:12;;;;;;;1999.90;999.90;;;11.80;99.90;;;;;;6125756;23;20210;-46
2021/06/20 03:48:40;;;;;;;1999.90;999.90;;;11.80;99.90;;;;;;6125814;23;20179;-46
2021/06/20 03:51:07;;;;;;;1999.90;999.90;;;11.80;99.90;;;;;;6125888;23;20143;-46
2021/06/20 03:53:35;;;;;;;1999.90;999.90;;;11.90;99.90;;;;;;6125516;23;20262;-46
2021/06/20 03:56:02;;;;;;;1999.90;999.90;;;11.80;99.90;;;;;;6125825;23;20218;-46
2021/06/20 03:58:28;;;;;;;1999.90;999.90;;;11.70;99.90;;;;;;6125822;23;20286;-46
2021/06/20 04:00:55;;;;;;;1999.90;999.90;;;11.60;99.90;;;;;;6125917;23;20148;-46
2021/06/20 04:03:23;;;;;;;1999.90;999.90;;;11.50;99.90;;;;;;6125836;23;20231;-46
2021/06/20 04:05:49;;;;;;;1999.90;999.90;;;11.40;99.90;;;;;;6125902;23;20185;-45
2021/06/20 04:08:16;;;;;;;1999.90;999.90;;;11.30;99.90;;;;;;6125681;23;20618;-46
2021/06/20 04:10:43;;;;;;;1999.90;999.90;;;11.30;99.90;;;;;;6125773;23;20174;-45
2021/06/20 04:13:10;;;;;;;1999.90;999.90;;;11.30;99.90;;;;;;6125701;23;20486;-46
2021/06/20 04:15:37;;;;;;;1999.90;999.90;;;11.20;99.90;;;;;;6125689;23;20159;-46
2021/06/20 04:18:04;;;;;;;1999.90;999.90;;;11.10;99.90;;;;;;6125538;23;20162;-46
2021/06/20 04:20:32;;;;;;;1999.90;999.90;;;11.10;99.90;;;;;;6125761;23;20143;-46
2021/06/20 04:22:59;;;;;;;1999.90;999.90;;;11.10;99.90;;;;;;6125691;23;20151;-45
2021/06/20 04:25:26;;;;;;;1999.90;999.90;;;11.00;99.90;;;;;;6125671;23;20222;-45
2021/06/20 04:27:53;;;;;;;1999.90;999.90;;;10.90;99.90;;;;;;6125817;23;20226;-46
2021/06/20 04:30:22;;;;;;;1999.90;999.90;;;10.80;99.90;;;;;;6125863;23;20178;-46
2021/06/20 04:32:51;;;;;;;1999.90;999.90;;;10.80;99.90;;;;;;6125994;23;20170;-46
2021/06/20 04:35:19;;;;;;;1999.90;999.90;;;10.90;99.90;;;;;;6125581;23;20155;-47
2021/06/20 04:37:46;;;;;;;1999.90;999.90;;;10.80;99.90;;;;;;6125697;23;20337;-45
2021/06/20 04:40:18;;;;;;;1999.90;999.90;;;10.80;99.90;;;;;;6125667;23;20613;-45
2021/06/20 04:42:54;;;;;;;1999.90;999.90;;;10.80;99.90;;;;;;6127680;23;20231;-46
2021/06/20 04:45:21;;;;;;;1999.90;999.90;;;10.80;99.90;;;;;;6127570;23;20147;-46
2021/06/20 04:47:48;;;;;;;1999.90;999.90;;;10.80;99.90;;;;;;6127281;23;20183;-46
2021/06/20 04:50:15;;;;;;;1999.90;999.90;;;10.90;99.90;;;;;;6127455;23;20186;-45
2021/06/20 04:52:43;;;;;;;1999.90;999.90;;;10.90;99.90;;;;;;6127062;23;20213;-46
2021/06/20 04:55:11;;;;;;;1999.90;999.90;;;10.80;99.90;;;;;;6127427;23;20150;-48
2021/06/20 04:57:38;;;;;;;1999.90;999.90;;;10.80;99.90;;;;;;6127278;23;20151;-47
2021/06/20 05:00:07;;;;;;;1999.90;999.90;;;10.70;99.90;;;;;;6127331;23;20202;-45
2021/06/20 05:02:34;;;;;;;1999.90;999.90;;;10.70;99.90;;;;;;6127280;23;20147;-46
2021/06/20 05:05:03;;;;;;;1999.90;999.90;;;10.70;99.90;;;;;;6127206;23;20214;-45
2021/06/20 05:07:29;;;;;;;1999.90;999.90;;;10.70;99.90;;;;;;6127314;23;20179;-45
2021/06/20 05:09:56;;;;;;;1999.90;999.90;;;10.70;99.90;;;;;;6127515;23;20579;-45
2021/06/20 05:12:23;;;;;;;1999.90;999.90;;;10.60;99.90;;;;;;6127474;23;20198;-45
2021/06/20 05:14:50;;;;;;;1999.90;999.90;;;10.50;99.90;;;;;;6127174;23;20483;-45
2021/06/20 05:17:18;;;;;;;1999.90;999.90;;;10.50;99.90;;;;;;6127246;23;20545;-45
2021/06/20 05:19:45;;;;;;;1999.90;999.90;;;10.50;99.90;;;;;;6127351;23;20143;-46
2021/06/20 05:22:13;;;;;;;1999.90;999.90;;;10.50;99.90;;;;;;6127036;23;20183;-45
2021/06/20 05:24:41;;;;;;;1999.90;999.90;;;10.50;99.90;;;;;;6127268;23;20147;-45
2021/06/20 05:27:09;;;;;;;1999.90;999.90;;;10.50;99.90;;;;;;6127111;23;20175;-46
2021/06/20 05:29:37;;;;;;;1999.90;999.90;;;10.60;99.90;;;;;;6127238;23;20151;-45
2021/06/20 05:32:04;;;;;;;1999.90;999.90;;;10.60;99.90;;;;;;6127176;23;20150;-46
2021/06/20 05:34:31;;;;;;;1999.90;999.90;;;10.60;99.90;;;;;;6126986;23;20159;-46
2021/06/20 05:36:58;;;;;;;1999.90;999.90;;;10.60;99.90;;;;;;6127357;23;20186;-45
2021/06/20 05:39:25;;;;;;;1999.90;999.90;;;10.50;99.90;;;;;;6127266;23;20154;-46
2021/06/20 05:41:52;;;;;;;1999.90;999.90;;;10.50;99.90;;;;;;6127116;23;20179;-46
2021/06/20 05:44:19;;;;;;;1999.90;999.90;;;10.50;99.90;;;;;;6127086;23;20155;-46
2021/06/20 05:46:46;;;;;;;1999.90;999.90;;;10.50;99.90;;;;;;6126828;23;20647;-46
2021/06/20 05:49:12;;;;;;;1999.90;999.90;;;10.40;99.90;;;;;;6126910;23;20151;-49
2021/06/20 05:51:39;;;;;;;1999.90;999.90;;;10.40;99.90;;;;;;6126733;23;20151;-46
2021/06/20 05:54:06;;;;;;;1999.90;999.90;;;10.40;99.90;;;;;;6126632;23;20196;-45
2021/06/20 05:56:33;;;;;;;1999.90;999.90;;;10.40;99.90;;;;;;6126785;23;20226;-46
2021/06/20 05:59:00;;;;;;;1999.90;999.90;;;10.40;99.90;;;;;;6126881;23;20222;-46
2021/06/20 06:01:27;;;;;;;1999.90;999.90;;;10.40;99.90;;;;;;6126789;23;20159;-45
2021/06/20 06:03:53;;;;;;;1999.90;999.90;;;10.40;99.90;;;;;;6126542;23;20477;-46
2021/06/20 06:06:20;;;;;;;1999.90;999.90;;;10.40;99.90;;;;;;6126736;23;20222;-45
2021/06/20 06:08:47;;;;;;;1999.90;999.90;;;10.40;99.90;;;;;;6126581;23;20185;-46
2021/06/20 06:11:14;;;;;;;1999.90;999.90;;;10.50;99.90;;;;;;6126630;23;20202;-46
2021/06/20 06:13:41;;;;;;;1999.90;999.90;;;10.40;99.90;;;;;;6126510;23;20252;-45
2021/06/20 06:16:08;;;;;;;1999.90;999.90;;;10.40;99.90;;;;;;6126501;23;20155;-46
2021/06/20 06:18:35;;;;;;;1999.90;999.90;;;10.50;99.90;;;;;;6126334;23;20241;-46
2021/06/20 06:21:01;;;;;;;1999.90;999.90;;;10.50;99.90;;;;;;6126541;23;20578;-47
2021/06/20 06:23:28;;;;;;;1999.90;999.90;;;10.60;99.90;;;;;;6126533;23;20151;-46
2021/06/20 06:25:55;;;;;;;1999.90;999.90;;;10.60;99.90;;;;;;6126466;23;20147;-45
2021/06/20 06:28:22;;;;;;;1999.90;999.90;;;10.60;99.90;;;;;;6126335;23;20182;-51
2021/06/20 06:30:49;;;;;;;1999.90;999.90;;;10.60;99.90;;;;;;6126442;23;20171;-54
2021/06/20 06:33:17;;;;;;;1999.90;999.90;;;10.60;99.90;;;;;;6126461;23;20242;-46
2021/06/20 06:35:44;;;;;;;1999.90;999.90;;;10.70;99.90;;;;;;6126496;23;20155;-46
2021/06/20 06:38:11;;;;;;;1999.90;999.90;;;10.90;99.90;;;;;;6126453;23;20148;-46
2021/06/20 06:40:38;;;;;;;1999.90;999.90;;;11.00;99.90;;;;;;6126371;23;20151;-45
2021/06/20 06:43:05;;;;;;;1999.90;999.90;;;11.10;99.90;;;;;;6126401;23;20154;-46
2021/06/20 06:45:32;;;;;;;1999.90;999.90;;;11.20;99.90;;;;;;6126351;23;20146;-46
2021/06/20 06:47:59;;;;;;;1999.90;999.90;;;11.40;99.90;;;;;;6126245;23;20186;-49
2021/06/20 06:50:26;;;;;;;1999.90;999.90;;;11.50;99.90;;;;;;6126332;23;20222;-47
2021/06/20 06:52:54;;;;;;;1999.90;999.90;;;11.70;99.90;;;;;;6126083;23;20518;-46
2021/06/20 06:55:21;;;;;;;1999.90;999.90;;;11.70;99.90;;;;;;6126151;23;20147;-54
2021/06/20 06:57:48;;;;;;;1999.90;999.90;;;11.60;99.90;;;;;;6126039;23;20155;-46
2021/06/20 07:00:16;;;;;;;1999.90;999.90;;;11.60;99.90;;;;;;6126085;23;20507;-44
2021/06/20 07:02:43;;;;;;;1999.90;999.90;;;11.60;99.90;;;;;;6125970;23;20155;-45
2021/06/20 07:05:10;;;;;;;1999.90;999.90;;;11.60;99.90;;;;;;6125765;23;20206;-45
2021/06/20 07:07:37;;;;;;;1999.90;999.90;;;11.50;99.90;;;;;;6125949;23;20649;-44
2021/06/20 07:10:05;;;;;;;1999.90;999.90;;;11.40;99.90;;;;;;6126039;23;20147;-47
2021/06/20 07:12:32;;;;;;;1999.90;999.90;;;11.50;99.90;;;;;;6126580;23;20147;-47
2021/06/20 07:15:04;;;;;;;1999.90;999.90;;;11.50;99.90;;;;;;6125804;23;20147;-50
2021/06/20 07:17:34;;;;;;;1999.90;999.90;;;11.50;99.90;;;;;;6125793;23;20148;-48
2021/06/20 07:20:03;;;;;;;1999.90;999.90;;;11.50;99.90;;;;;;6125767;23;20204;-48
2021/06/20 07:22:30;;;;;;;1999.90;999.90;;;11.70;99.90;;;;;;6125890;23;20155;-47
2021/06/20 07:24:57;;;;;;;1999.90;999.90;;;11.90;99.90;;;;;;6125957;23;20197;-47
2021/06/20 07:27:24;;;;;;;1999.90;999.90;;;12.10;99.90;;;;;;6125258;23;20171;-46
2021/06/20 07:29:51;;;;;;;1999.90;999.90;;;12.30;99.90;;;;;;6125530;23;20174;-47
2021/06/20 07:32:18;;;;;;;1999.90;999.90;;;12.50;99.90;;;;;;6125725;23;20147;-48
2021/06/20 07:34:45;;;;;;;1999.90;999.90;;;12.70;99.90;;;;;;6125686;23;20151;-47
2021/06/20 07:37:12;;;;;;;1999.90;999.90;;;12.80;99.90;;;;;;6125729;23;20194;-47
2021/06/20 07:39:38;;;;;;;1999.90;999.90;;;12.80;99.90;;;;;;6125971;23;20147;-51
2021/06/20 07:42:06;;;;;;;1999.90;999.90;;;12.90;99.90;;;;;;6125892;23;20154;-50
2021/06/20 07:44:33;;;;;;;1999.90;999.90;;;12.90;99.90;;;;;;6125658;23;20143;-49
2021/06/20 07:47:00;;;;;;;1999.90;999.90;;;13.00;99.90;;;;;;6125867;23;20561;-49
2021/06/20 07:49:27;;;;;;;1999.90;999.90;;;13.00;99.90;;;;;;6125257;23;20163;-48
2021/06/20 07:51:53;;;;;;;1999.90;999.90;;;13.10;99.90;;;;;;6125482;23;20157;-48
2021/06/20 07:54:20;;;;;;;1999.90;999.90;;;13.20;99.90;;;;;;6125304;23;20246;-49
2021/06/20 07:56:47;;;;;;;1999.90;999.90;;;13.30;99.90;;;;;;6125445;23;20174;-51
2021/06/20 07:59:15;;;;;;;1999.90;999.90;;;13.50;99.90;;;;;;6125613;23;20144;-48
2021/06/20 08:01:42;;;;;;;1999.90;999.90;;;13.60;99.90;;;;;;6125551;23;20154;-49
2021/06/20 08:04:09;;;;;;;1999.90;999.90;;;13.60;99.90;;;;;;6125788;23;20151;-54
2021/06/20 08:06:36;;;;;;;1999.90;999.90;;;13.80;99.90;;;;;;6125375;23;20155;-51
2021/06/20 08:09:04;;;;;;;1999.90;999.90;;;13.90;99.90;;;;;;6125144;23;20163;-53
2021/06/20 08:11:33;;;;;;;1999.90;999.90;;;14.10;99.90;;;;;;6125586;23;20594;-53
2021/06/20 08:14:02;;;;;;;1999.90;999.90;;;14.30;99.90;;;;;;6125797;23;20157;-52
2021/06/20 08:16:30;;;;;;;1999.90;999.90;;;14.50;99.90;;;;;;6126868;23;20151;-53
2021/06/20 08:18:57;;;;;;;1999.90;999.90;;;14.70;99.90;;;;;;6127670;23;20155;-51
2021/06/20 08:21:23;;;;;;;1999.90;999.90;;;15.00;99.90;;;;;;6127606;23;20579;-51
2021/06/20 08:23:50;;;;;;;1999.90;999.90;;;15.20;99.90;;;;;;6127576;23;20226;-53
2021/06/20 08:26:18;;;;;;;1999.90;999.90;;;15.30;99.90;;;;;;6127383;23;20198;-48
2021/06/20 08:28:44;;;;;;;1999.90;999.90;;;15.50;99.90;;;;;;6127281;23;20199;-49
2021/06/20 08:31:12;;;;;;;1999.90;999.90;;;15.70;99.90;;;;;;6127336;23;20210;-45
2021/06/20 08:33:39;;;;;;;1999.90;999.90;;;15.90;99.90;;;;;;6127409;23;20239;-47
2021/06/20 08:36:06;;;;;;;1999.90;999.90;;;16.10;99.90;;;;;;6127232;23;20183;-45
2021/06/20 08:38:33;;;;;;;1999.90;999.90;;;16.30;99.90;;;;;;6127299;23;20175;-52
2021/06/20 08:41:02;;;;;;;1999.90;999.90;;;16.50;99.90;;;;;;6127102;23;20579;-47
2021/06/20 08:43:28;;;;;;;1999.90;999.90;;;16.60;99.90;;;;;;6127111;23;20194;-47
2021/06/20 08:45:56;;;;;;;1999.90;999.90;;;16.80;99.90;;;;;;6127371;23;20207;-49
2021/06/20 08:48:23;;;;;;;1999.90;999.90;;;17.00;97.70;;;;;;6127247;23;20489;-49
2021/06/20 08:50:52;;;;;;;1999.90;999.90;;;17.20;97.10;;;;;;6127459;23;20147;-52
2021/06/20 08:53:21;;;;;;;1999.90;999.90;;;17.30;97.10;;;;;;6126828;23;20594;-46
2021/06/20 08:55:48;;;;;;;1999.90;999.90;;;17.60;97.50;;;;;;6127081;23;20154;-47
2021/06/20 08:58:26;;;;;;;1999.90;999.90;;;17.70;97.90;;;;;;6127358;23;20147;-51
2021/06/20 09:00:56;;;;;;;1999.90;999.90;;;17.90;96.50;;;;;;6126995;23;20263;-53
2021/06/20 09:03:24;;;;;;;1999.90;999.90;;;18.10;96.10;;;;;;6127175;23;20139;-51
2021/06/20 09:06:19;;;;;;;1999.90;999.90;;;18.40;97.90;;;;;;6101310;23;20166;-51
2021/06/20 09:08:50;;;;;;;1999.90;999.90;;;18.80;96.10;;;;;;6115681;23;20191;-47
2021/06/20 09:11:38;;;;;;;1999.90;999.90;;;19.30;94.90;;;;;;6127145;23;20151;-49
2021/06/20 09:14:08;;;;;;;1999.90;999.90;;;19.50;95.10;;;;;;6126953;23;20207;-47
2021/06/20 09:16:45;;;;;;;1999.90;999.90;;;19.90;91.60;;;;;;6127134;23;20142;-47
2021/06/20 09:19:12;;;;;;;1999.90;999.90;;;20.10;91.50;;;;;;6126919;23;20143;-47
2021/06/20 09:21:39;;;;;;;1999.90;999.90;;;20.20;90.10;;;;;;6126728;23;20159;-47
2021/06/20 09:24:16;;;;;;;1999.90;999.90;;;20.40;88.90;;;;;;6126586;23;20148;-46
2021/06/20 09:26:43;;;;;;;1999.90;999.90;;;20.60;85.00;;;;;;6126602;23;20135;-48
2021/06/20 09:29:11;;;;;;;1999.90;999.90;;;21.00;88.80;;;;;;6126755;23;20162;-48
2021/06/20 09:31:53;;;;;;;1999.90;999.90;;;21.20;87.20;;;;;;6126784;23;20155;-46
2021/06/20 09:34:20;;;;;;;1999.90;999.90;;;21.30;85.60;;;;;;6126582;23;20662;-47
2021/06/20 09:36:47;;;;;;;1999.90;999.90;;;21.40;84.90;;;;;;6126750;23;20144;-53
2021/06/20 09:39:22;;;;;;;1999.90;999.90;;;21.60;85.40;;;;;;6127025;23;20158;-46
2021/06/20 09:42:00;;;;;;;1999.90;999.90;;;21.70;85.00;;;;;;6126701;23;20486;-46
2021/06/20 09:44:52;;;;;;;1999.90;999.90;;;22.10;74.90;;;;;;6126383;23;20230;-46
2021/06/20 09:47:24;;;;;;;1999.90;999.90;;;22.20;64.40;;;;;;6126741;23;20178;-48
2021/06/20 09:49:53;;;;;;;1999.90;999.90;;;22.60;53.60;;;;;;6126914;23;20156;-50
2021/06/20 09:52:31;;;;;;;1999.90;999.90;;;23.00;51.60;;;;;;6126855;23;20163;-47
2021/06/20 09:55:01;;;;;;;1999.90;999.90;;;23.20;50.00;;;;;;6126929;23;20155;-46
2021/06/20 09:57:28;;;;;;;1999.90;999.90;;;23.30;48.60;;;;;;6127144;23;20564;-48
2021/06/20 10:00:03;;;;;;;1999.90;999.90;;;23.50;48.00;;;;;;6126982;23;20148;-49
2021/06/20 10:02:34;;;;;;;1999.90;999.90;;;23.70;46.50;;;;;;6127124;23;20146;-49
2021/06/20 10:05:02;;;;;;;1999.90;999.90;;;23.80;45.80;;;;;;6126487;23;20136;-50
2021/06/20 10:07:29;;;;;;;1999.90;999.90;;;23.90;46.30;;;;;;6126455;23;20191;-52
2021/06/20 10:09:59;;;;;;;1999.90;999.90;;;24.00;47.10;;;;;;6126586;23;20217;-48
2021/06/20 10:12:27;;;;;;;1999.90;999.90;;;24.00;46.90;;;;;;6126594;23;20155;-46
2021/06/20 10:14:56;;;;;;;1999.90;999.90;;;24.10;45.10;;;;;;6126370;23;20144;-47
2021/06/20 10:17:37;;;;;;;1999.90;999.90;;;24.20;44.80;;;;;;6126148;23;20202;-47
2021/06/20 10:20:07;;;;;;;1999.90;999.90;;;24.30;46.30;;;;;;6125961;23;20158;-48
2021/06/20 10:22:39;;;;;;;1999.90;999.90;;;24.50;46.40;;;;;;6126541;23;20563;-47
2021/06/20 10:25:09;;;;;;;1999.90;999.90;;;24.70;44.10;;;;;;6125737;23;20181;-48
2021/06/20 10:27:43;;;;;;;1999.90;999.90;;;24.80;43.80;;;;;;6126262;23;20194;-47
2021/06/20 10:30:16;;;;;;;1999.90;999.90;;;24.90;45.20;;;;;;6125875;23;20143;-47
2021/06/20 10:32:49;;;;;;;1999.90;999.90;;;25.00;43.50;;;;;;6126106;23;20148;-47
2021/06/20 10:35:24;;;;;;;1999.90;999.90;;;25.10;43.90;;;;;;6125916;23;20583;-48
2021/06/20 10:37:53;;;;;;;1999.90;999.90;;;25.30;43.50;;;;;;6125816;23;20139;-47
2021/06/20 10:40:55;;;;;;;1999.90;999.90;;;25.50;42.30;;;;;;6125349;23;20170;-47
2021/06/20 10:43:22;;;;;;;1999.90;999.90;;;25.70;41.30;;;;;;6008357;23;20161;-47
2021/06/20 10:45:50;;;;;;;1999.90;999.90;;;25.80;39.10;;;;;;6103076;23;20155;-47
2021/06/20 10:48:24;;;;;;;1999.90;999.90;;;26.00;39.20;;;;;;6125751;23;20183;-46
2021/06/20 10:50:59;;;;;;;1999.90;999.90;;;26.00;40.20;;;;;;6125808;23;20181;-47
2021/06/20 10:53:27;;;;;;;1999.90;999.90;;;26.10;40.30;;;;;;6125311;23;20182;-50
2021/06/20 10:55:59;;;;;;;1999.90;999.90;;;26.10;40.10;;;;;;6125544;23;20175;-47
2021/06/20 10:58:31;;;;;;;1999.90;999.90;;;26.20;40.90;;;;;;6125239;23;20218;-48
2021/06/20 11:01:13;;;;;;;1999.90;999.90;;;26.20;40.40;;;;;;6125630;23;20139;-47
2021/06/20 11:03:58;;;;;;;1999.90;999.90;;;26.40;39.80;;;;;;6125466;23;20147;-47
2021/06/20 11:06:26;;;;;;;1999.90;999.90;;;26.40;39.80;;;;;;6125683;23;20478;-47
2021/06/20 11:08:53;;;;;;;1999.90;999.90;;;26.50;39.70;;;;;;6125448;23;20182;-48
2021/06/20 11:11:23;;;;;;;1999.90;999.90;;;26.50;39.20;;;;;;6125613;23;20147;-50
2021/06/20 11:14:10;;;;;;;1999.90;999.90;;;26.60;39.40;;;;;;6126051;23;20159;-52
2021/06/20 11:16:42;;;;;;;1999.90;999.90;;;26.70;39.20;;;;;;6125425;23;20147;-46
2021/06/20 11:19:22;;;;;;;1999.90;999.90;;;26.60;38.90;;;;;;6125589;23;20226;-47
2021/06/20 11:21:57;;;;;;;1999.90;999.90;;;26.70;39.00;;;;;;6125368;23;20226;-49
2021/06/20 11:24:33;;;;;;;1999.90;999.90;;;26.80;39.00;;;;;;6125430;23;20637;-48
2021/06/20 11:27:01;;;;;;;1999.90;999.90;;;26.80;39.50;;;;;;6125641;23;20139;-52
2021/06/20 11:29:42;;;;;;;1999.90;999.90;;;26.90;38.60;;;;;;6125698;23;20201;-52
2021/06/20 11:32:23;;;;;;;1999.90;999.90;;;26.90;38.80;;;;;;6125336;23;20151;-49
2021/06/20 11:34:58;;;;;;;1999.90;999.90;;;27.00;39.10;;;;;;6125479;23;20254;-52
2021/06/20 11:37:33;;;;;;;1999.90;999.90;;;27.10;41.00;;;;;;6125505;23;20169;-53
2021/06/20 11:40:02;;;;;;;1999.90;999.90;;;27.10;41.80;;;;;;6125461;23;20131;-49
2021/06/20 11:42:34;;;;;;;1999.90;999.90;;;27.10;40.10;;;;;;6125297;23;20163;-49
2021/06/20 11:45:14;;;;;;;1999.90;999.90;;;27.00;38.90;;;;;;6125641;23;20143;-47
2021/06/20 11:47:47;;;;;;;1999.90;999.90;;;26.90;39.10;;;;;;6125280;23;20558;-47
2021/06/20 11:50:19;;;;;;;1999.90;999.90;;;26.80;38.60;;;;;;6126979;23;20138;-47
2021/06/20 11:52:48;;;;;;;1999.90;999.90;;;26.80;40.20;;;;;;6128880;23;20218;-48
2021/06/20 11:55:24;;;;;;;1999.90;999.90;;;26.80;38.70;;;;;;6128947;23;20174;-47
2021/06/20 11:57:52;;;;;;;1999.90;999.90;;;26.80;40.60;;;;;;6128855;23;20151;-47
2021/06/20 12:00:25;;;;;;;1999.90;999.90;;;26.90;41.40;;;;;;6128819;23;20713;-49
2021/06/20 12:03:23;;;;;;;1999.90;999.90;;;27.00;41.30;;;;;;6128642;23;20154;-47
2021/06/20 12:05:58;;;;;;;1999.90;999.90;;;27.00;40.90;;;;;;6128691;23;20135;-47
2021/06/20 12:08:25;;;;;;;1999.90;999.90;;;26.90;42.60;;;;;;6128864;23;20192;-52